Time;durP1;ratioP1;P1;durP2;ratioP2;P2;SDS_P1;SDS_P2;PMS_P1;PMS_P2;Temp;Humidity;BMP_temperature;BMP_pressure;BME280_temperature;BME280_humidity;BME280_pressure;Samples;Min_cycle;Max_cycle;Signal;HPM_P1;HPM_P2
2023/02/07 00:01:21;;;;;;;3.10;2.58;;;2.60;93.80;;;;;;5050451;28;20401;-73
2023/02/07 00:03:48;;;;;;;3.40;3.08;;;2.70;86.80;;;;;;5050442;28;20755;-72
2023/02/07 00:06:16;;;;;;;3.50;3.20;;;2.70;81.60;;;;;;5056190;28;20391;-72
2023/02/07 00:08:42;;;;;;;3.20;2.90;;;2.60;83.10;;;;;;5070016;28;20395;-72
2023/02/07 00:11:15;;;;;;;3.00;2.70;;;2.60;84.30;;;;;;5070035;28;20395;-72
2023/02/07 00:13:41;;;;;;;3.42;3.13;;;2.40;85.00;;;;;;5069998;28;20392;-72
2023/02/07 00:16:07;;;;;;;4.03;3.10;;;2.40;80.50;;;;;;5069681;28;20384;-72
2023/02/07 00:18:33;;;;;;;3.20;2.90;;;2.30;78.30;;;;;;5070054;28;20390;-72
2023/02/07 00:21:01;;;;;;;3.00;2.70;;;2.20;81.70;;;;;;5050643;28;20500;-72
2023/02/07 00:23:27;;;;;;;3.45;3.15;;;2.10;80.10;;;;;;5049559;28;20394;-73
2023/02/07 00:25:53;;;;;;;3.90;3.08;;;2.10;83.60;;;;;;5049456;28;20381;-73
2023/02/07 00:28:18;;;;;;;3.70;3.40;;;2.00;84.50;;;;;;5049854;28;20400;-72
2023/02/07 00:30:44;;;;;;;3.10;2.80;;;2.10;84.10;;;;;;5049792;28;20381;-72
2023/02/07 00:33:09;;;;;;;3.55;3.10;;;2.00;80.10;;;;;;5049959;28;20455;-73
2023/02/07 00:35:35;;;;;;;3.63;3.30;;;1.90;82.40;;;;;;5049418;28;20860;-72
2023/02/07 00:38:00;;;;;;;3.83;3.03;;;1.80;87.50;;;;;;5049190;28;20393;-73
2023/02/07 00:40:26;;;;;;;3.17;2.88;;;1.80;86.40;;;;;;5049711;28;20405;-73
2023/02/07 00:42:51;;;;;;;3.70;3.10;;;1.80;87.90;;;;;;5049699;28;20389;-74
2023/02/07 00:45:17;;;;;;;2.97;2.70;;;1.70;84.60;;;;;;5049682;28;20373;-75
2023/02/07 00:47:42;;;;;;;3.30;3.00;;;1.60;83.80;;;;;;5049573;28;20914;-73
2023/02/07 00:50:09;;;;;;;3.03;2.72;;;1.60;75.80;;;;;;5049299;28;20397;-73
2023/02/07 00:52:35;;;;;;;3.30;3.00;;;2.10;75.20;;;;;;5049892;28;20460;-72
2023/02/07 00:55:00;;;;;;;3.00;2.70;;;1.60;72.90;;;;;;5053451;28;20405;-74
2023/02/07 00:57:26;;;;;;;3.63;3.15;;;1.40;71.00;;;;;;5053048;28;20377;-74
2023/02/07 00:59:51;;;;;;;4.57;2.85;;;1.40;69.10;;;;;;5053495;28;20384;-74
2023/02/07 01:02:17;;;;;;;3.10;2.80;;;1.20;68.10;;;;;;5053361;28;20436;-73
2023/02/07 01:04:42;;;;;;;3.30;3.00;;;1.40;67.80;;;;;;5053224;28;20447;-73
2023/02/07 01:07:08;;;;;;;3.72;3.33;;;1.20;69.90;;;;;;5052516;28;20393;-75
2023/02/07 01:09:33;;;;;;;4.60;3.00;;;1.20;71.60;;;;;;5053092;28;20405;-74
2023/02/07 01:11:59;;;;;;;4.10;3.00;;;1.20;68.60;;;;;;5053079;28;20433;-73
2023/02/07 01:14:25;;;;;;;3.85;3.38;;;1.10;69.10;;;;;;5053096;28;20464;-73
2023/02/07 01:16:50;;;;;;;3.70;3.10;;;1.10;72.90;;;;;;5052758;28;20458;-73
2023/02/07 01:19:17;;;;;;;4.30;3.70;;;1.00;72.90;;;;;;5053029;28;20389;-73
2023/02/07 01:21:43;;;;;;;4.85;3.40;;;1.00;71.70;;;;;;5052556;28;20443;-74
2023/02/07 01:24:08;;;;;;;3.80;3.40;;;1.00;72.60;;;;;;5053048;28;20381;-74
2023/02/07 01:26:36;;;;;;;4.20;3.80;;;1.00;76.60;;;;;;5052481;28;20949;-72
2023/02/07 01:29:02;;;;;;;4.22;3.60;;;0.90;75.80;;;;;;5052799;28;20417;-73
2023/02/07 01:31:27;;;;;;;5.25;3.80;;;0.90;75.40;;;;;;5052684;28;20417;-74
2023/02/07 01:33:55;;;;;;;6.30;4.10;;;0.90;79.10;;;;;;5052731;28;20412;-74
2023/02/07 01:36:20;;;;;;;5.22;3.67;;;0.80;79.80;;;;;;5052009;28;20397;-74
2023/02/07 01:38:46;;;;;;;4.03;3.63;;;0.80;79.80;;;;;;5052448;28;20393;-74
2023/02/07 01:41:12;;;;;;;5.17;4.23;;;0.60;85.50;;;;;;5052143;28;20499;-73
2023/02/07 01:43:58;;;;;;;5.32;3.90;;;0.70;85.70;;;;;;5052569;28;20413;-74
2023/02/07 01:46:24;;;;;;;4.82;4.10;;;0.60;85.60;;;;;;5052730;28;20385;-73
2023/02/07 01:48:51;;;;;;;5.00;4.50;;;0.60;89.50;;;;;;5052487;28;20385;-74
2023/02/07 01:51:18;;;;;;;5.28;4.40;;;0.60;89.40;;;;;;5052146;28;20460;-74
2023/02/07 01:53:43;;;;;;;4.53;4.00;;;0.60;87.30;;;;;;5052333;28;20832;-74
2023/02/07 01:56:11;;;;;;;4.63;4.22;;;0.50;90.90;;;;;;5052038;28;20389;-73
2023/02/07 01:58:37;;;;;;;5.30;4.40;;;0.20;91.70;;;;;;5052045;28;20440;-73
2023/02/07 02:01:08;;;;;;;5.72;4.22;;;0.50;90.20;;;;;;5052219;28;20420;-73
2023/02/07 02:03:38;;;;;;;5.70;4.30;;;0.50;88.60;;;;;;5051215;28;20434;-74
2023/02/07 02:06:04;;;;;;;5.75;4.60;;;0.30;92.30;;;;;;5051277;28;20389;-74
2023/02/07 02:08:29;;;;;;;5.05;4.05;;;0.40;90.60;;;;;;5051879;28;20733;-75
2023/02/07 02:11:08;;;;;;;5.43;4.50;;;0.30;92.50;;;;;;5052097;28;20907;-73
2023/02/07 02:13:56;;;;;;;5.80;4.57;;;0.20;92.10;;;;;;5052036;28;20388;-75
2023/02/07 02:16:39;;;;;;;5.85;4.45;;;0.30;91.30;;;;;;5051655;28;20434;-75
2023/02/07 02:19:26;;;;;;;5.45;4.57;;;0.30;87.10;;;;;;5051473;28;20470;-73
2023/02/07 02:22:08;;;;;;;5.75;4.85;;;0.10;90.30;;;;;;5051796;28;20449;-73
2023/02/07 02:24:54;;;;;;;5.00;4.43;;;0.20;91.70;;;;;;5051543;28;20397;-73
2023/02/07 02:27:59;;;;;;;5.82;4.80;;;0.30;90.10;;;;;;5051325;28;20385;-73
2023/02/07 02:30:51;;;;;;;5.38;4.88;;;0.30;85.90;;;;;;5051687;28;20851;-74
2023/02/07 02:33:25;;;;;;;5.95;5.10;;;0.30;92.60;;;;;;5051665;28;20536;-73
2023/02/07 02:36:14;;;;;;;5.50;4.85;;;0.20;90.10;;;;;;5048940;28;20405;-73
2023/02/07 02:38:56;;;;;;;5.50;4.70;;;0.20;84.90;;;;;;5051358;28;20929;-74
2023/02/07 02:41:38;;;;;;;7.07;4.80;;;0.10;87.80;;;;;;5051150;28;20459;-73
2023/02/07 02:44:11;;;;;;;5.47;4.60;;;0.10;87.10;;;;;;5050095;28;20428;-73
2023/02/07 02:46:40;;;;;;;6.05;4.75;;;0.20;88.20;;;;;;5051281;28;20460;-74
2023/02/07 02:49:09;;;;;;;5.00;4.50;;;0.20;91.10;;;;;;5049915;28;20385;-73
2023/02/07 02:51:35;;;;;;;6.20;5.00;;;0.20;92.20;;;;;;5051018;28;20404;-73
2023/02/07 02:54:01;;;;;;;6.23;5.10;;;-0.10;92.90;;;;;;5051217;28;21120;-73
2023/02/07 02:56:48;;;;;;;5.95;5.00;;;-0.10;94.90;;;;;;5049487;28;20447;-73
2023/02/07 03:00:07;;;;;;;5.40;4.90;;;0.10;91.00;;;;;;5051084;28;20464;-73
2023/02/07 03:02:44;;;;;;;5.78;4.80;;;0.00;91.30;;;;;;4989450;28;20729;-73
2023/02/07 03:05:35;;;;;;;5.35;4.53;;;0.00;91.20;;;;;;4989305;28;20417;-75
2023/02/07 03:08:28;;;;;;;5.43;4.93;;;0.00;90.60;;;;;;5029912;28;20763;-73
2023/02/07 03:11:10;;;;;;;5.57;4.97;;;0.00;88.10;;;;;;5090599;22;20873;-68
2023/02/07 03:14:03;;;;;;;6.32;4.97;;;0.00;85.50;;;;;;5070827;28;20382;-70
2023/02/07 03:16:55;;;;;;;5.80;5.15;;;0.00;85.50;;;;;;5070371;28;20378;-68
2023/02/07 03:19:30;;;;;;;6.32;5.03;;;-0.10;83.40;;;;;;5075613;28;20414;-70
2023/02/07 03:21:59;;;;;;;4.88;4.38;;;0.00;81.30;;;;;;5090661;28;20406;-70
2023/02/07 03:24:31;;;;;;;5.65;5.05;;;0.00;81.50;;;;;;5090449;28;20391;-70
2023/02/07 03:26:59;;;;;;;5.75;5.00;;;0.00;77.60;;;;;;5090665;28;20469;-70
2023/02/07 03:29:28;;;;;;;6.20;5.33;;;0.00;78.10;;;;;;5090660;28;21182;-70
2023/02/07 03:31:57;;;;;;;6.97;5.00;;;0.00;78.50;;;;;;5090762;28;20925;-70
2023/02/07 03:34:31;;;;;;;6.32;5.50;;;0.00;83.50;;;;;;5090503;28;20429;-70
2023/02/07 03:37:08;;;;;;;6.35;5.75;;;0.20;79.50;;;;;;5090202;28;20440;-70
2023/02/07 03:39:33;;;;;;;5.57;4.97;;;-0.10;79.10;;;;;;5090606;28;20840;-70
2023/02/07 03:42:03;;;;;;;7.70;5.47;;;-0.20;79.40;;;;;;5090501;28;20431;-70
2023/02/07 03:44:32;;;;;;;5.95;5.38;;;-0.10;78.70;;;;;;5091414;28;20736;-70
2023/02/07 03:46:58;;;;;;;6.67;5.60;;;-0.10;77.20;;;;;;5090089;28;20397;-70
2023/02/07 03:49:23;;;;;;;7.15;5.55;;;-0.10;76.00;;;;;;5090424;28;20397;-70
2023/02/07 03:51:50;;;;;;;6.33;5.57;;;-0.10;76.60;;;;;;5090083;28;20394;-70
2023/02/07 03:54:16;;;;;;;6.13;5.30;;;-0.10;78.00;;;;;;5090099;28;20397;-70
2023/02/07 03:56:42;;;;;;;6.78;5.22;;;-0.20;78.40;;;;;;5090135;28;20776;-69
2023/02/07 03:59:07;;;;;;;7.22;5.47;;;-0.10;81.70;;;;;;5090217;28;20382;-69
2023/02/07 04:01:36;;;;;;;6.10;5.30;;;-0.20;81.60;;;;;;5090300;28;20393;-70
2023/02/07 04:04:02;;;;;;;5.65;4.80;;;-0.20;80.40;;;;;;5090541;28;20386;-70
2023/02/07 04:06:27;;;;;;;6.60;5.32;;;-0.20;80.20;;;;;;5079894;28;20896;-70
2023/02/07 04:08:53;;;;;;;7.03;5.13;;;-0.30;83.80;;;;;;5075490;28;20386;-70
2023/02/07 04:11:18;;;;;;;5.65;5.10;;;-0.20;83.10;;;;;;5090331;28;20413;-70
2023/02/07 04:13:44;;;;;;;6.20;5.60;;;-0.20;81.20;;;;;;5072110;28;20414;-70
2023/02/07 04:16:09;;;;;;;7.07;6.10;;;-0.30;82.60;;;;;;5089923;28;20473;-70
2023/02/07 04:18:35;;;;;;;6.67;5.30;;;-0.30;82.70;;;;;;5090262;28;20945;-70
2023/02/07 04:21:06;;;;;;;6.63;5.77;;;-0.30;80.90;;;;;;5089811;28;20483;-70
2023/02/07 04:23:32;;;;;;;5.50;4.97;;;-0.20;82.20;;;;;;5090180;28;20708;-70
2023/02/07 04:25:58;;;;;;;6.60;5.55;;;-0.20;84.90;;;;;;5089896;28;20370;-70
2023/02/07 04:28:23;;;;;;;6.90;5.43;;;-0.20;80.40;;;;;;5093229;28;20374;-70
2023/02/07 04:30:49;;;;;;;6.20;5.60;;;-0.40;84.30;;;;;;5094240;28;20422;-70
2023/02/07 04:33:15;;;;;;;6.30;5.70;;;-0.30;87.30;;;;;;5094803;28;20541;-70
2023/02/07 04:35:41;;;;;;;6.82;6.13;;;-0.30;78.70;;;;;;5094024;28;20752;-70
2023/02/07 04:38:06;;;;;;;6.60;5.80;;;-0.30;78.60;;;;;;5094064;28;20382;-68
2023/02/07 04:40:32;;;;;;;7.47;6.20;;;-0.90;77.40;;;;;;5094516;28;20385;-68
2023/02/07 04:42:57;;;;;;;6.72;5.72;;;-0.10;83.10;;;;;;5094450;28;20467;-68
2023/02/07 04:45:23;;;;;;;9.52;6.93;;;-0.20;78.60;;;;;;5094298;28;20523;-68
2023/02/07 04:47:49;;;;;;;7.05;6.35;;;-0.20;78.90;;;;;;5094171;28;20815;-68
2023/02/07 04:50:15;;;;;;;11.13;6.50;;;-0.10;82.80;;;;;;5094246;28;20378;-68
2023/02/07 04:52:40;;;;;;;8.53;7.73;;;-0.30;85.60;;;;;;5093923;28;20767;-68
2023/02/07 04:55:07;;;;;;;8.77;6.13;;;-0.20;83.40;;;;;;5094019;28;20392;-68
2023/02/07 04:57:33;;;;;;;9.00;6.60;;;-0.30;84.40;;;;;;5093755;28;20374;-68
2023/02/07 04:59:58;;;;;;;8.00;7.00;;;-0.40;85.70;;;;;;5093932;28;20743;-68
2023/02/07 05:02:24;;;;;;;8.33;7.37;;;-0.30;85.00;;;;;;5093951;28;20398;-68
2023/02/07 05:04:50;;;;;;;9.32;6.82;;;0.10;91.40;;;;;;5093993;28;20386;-68
2023/02/07 05:07:15;;;;;;;8.88;6.93;;;-0.30;88.30;;;;;;5084995;28;20385;-68
2023/02/07 05:09:41;;;;;;;8.48;6.80;;;-0.30;89.20;;;;;;5084499;28;20437;-68
2023/02/07 05:12:07;;;;;;;9.55;6.97;;;-0.20;91.80;;;;;;5085422;28;20405;-68
2023/02/07 05:14:32;;;;;;;7.75;6.95;;;-0.50;92.40;;;;;;5084729;28;20389;-68
2023/02/07 05:16:58;;;;;;;9.63;7.20;;;-0.40;89.80;;;;;;5081846;28;20411;-68
2023/02/07 05:19:24;;;;;;;8.63;7.40;;;-0.40;90.10;;;;;;5082550;28;20394;-68
2023/02/07 05:21:49;;;;;;;9.67;7.00;;;-0.30;93.10;;;;;;5083670;28;21098;-68
2023/02/07 05:24:15;;;;;;;8.47;6.63;;;-0.30;88.20;;;;;;5083674;28;20386;-68
2023/02/07 05:26:40;;;;;;;7.50;6.40;;;-0.30;86.40;;;;;;5087046;28;20384;-68
2023/02/07 05:29:06;;;;;;;8.80;6.82;;;-0.50;91.00;;;;;;5090986;28;20382;-68
2023/02/07 05:34:16;;;;;;;7.00;6.03;;;-0.30;87.10;;;;;;5092802;28;20527;-69
2023/02/07 05:36:41;;;;;;;8.30;6.90;;;-0.30;87.40;;;;;;5092782;28;20489;-68
2023/02/07 05:39:07;;;;;;;7.72;6.82;;;-0.50;91.50;;;;;;5093092;28;20469;-68
2023/02/07 05:41:32;;;;;;;8.80;7.30;;;-0.30;89.40;;;;;;5093101;28;20402;-68
2023/02/07 05:43:58;;;;;;;8.90;7.13;;;-0.30;90.90;;;;;;5093015;28;20382;-68
2023/02/07 05:46:23;;;;;;;9.27;7.95;;;-0.60;91.50;;;;;;5092748;28;20469;-68
2023/02/07 05:48:49;;;;;;;7.82;6.65;;;-0.30;90.40;;;;;;5074326;28;20394;-68
2023/02/07 05:51:14;;;;;;;9.68;7.22;;;-0.30;90.00;;;;;;5092508;28;20451;-68
2023/02/07 05:53:40;;;;;;;9.05;7.53;;;-0.40;92.20;;;;;;5092742;28;20406;-69
2023/02/07 05:56:05;;;;;;;8.95;7.47;;;-0.30;89.10;;;;;;5092565;28;20378;-68
2023/02/07 05:58:31;;;;;;;8.40;7.50;;;-0.30;85.00;;;;;;5089927;28;20398;-69
2023/02/07 06:00:56;;;;;;;9.80;7.43;;;-0.20;90.30;;;;;;5086901;28;20565;-68
2023/02/07 06:03:22;;;;;;;7.40;6.60;;;-0.30;91.10;;;;;;5080634;28;20421;-68
2023/02/07 06:05:47;;;;;;;9.00;7.40;;;-0.30;88.70;;;;;;5071910;28;20849;-68
2023/02/07 06:08:13;;;;;;;8.90;7.00;;;-0.20;88.30;;;;;;5072383;28;20376;-69
2023/02/07 06:10:39;;;;;;;8.40;7.40;;;-0.20;88.90;;;;;;5072226;28;20392;-69
2023/02/07 06:13:04;;;;;;;7.27;6.40;;;-0.30;87.00;;;;;;5074113;28;20463;-68
2023/02/07 06:15:30;;;;;;;8.30;7.00;;;-0.20;86.20;;;;;;5092055;28;20401;-68
2023/02/07 06:17:55;;;;;;;11.35;7.22;;;-0.30;90.70;;;;;;5091914;28;20394;-68
2023/02/07 06:20:21;;;;;;;9.23;7.10;;;-0.20;91.30;;;;;;5092598;28;20394;-68
2023/02/07 06:22:47;;;;;;;8.15;7.15;;;-0.20;86.10;;;;;;5093228;28;20382;-69
2023/02/07 06:25:12;;;;;;;8.30;7.50;;;-0.40;88.30;;;;;;5092539;28;20384;-68
2023/02/07 06:27:39;;;;;;;9.13;7.30;;;-0.20;88.30;;;;;;5091940;28;20461;-68
2023/02/07 06:30:06;;;;;;;8.93;7.17;;;-0.40;91.10;;;;;;5091439;28;20435;-70
2023/02/07 06:32:32;;;;;;;9.57;8.27;;;-0.30;91.90;;;;;;5091874;28;20749;-68
2023/02/07 06:34:58;;;;;;;9.17;7.80;;;-0.20;90.00;;;;;;5091328;28;20374;-68
2023/02/07 06:37:23;;;;;;;10.00;8.20;;;-0.20;88.70;;;;;;5091953;28;20408;-68
2023/02/07 06:39:49;;;;;;;10.13;7.80;;;-0.20;86.60;;;;;;5091948;28;20389;-68
2023/02/07 06:42:14;;;;;;;8.40;7.47;;;-0.50;90.50;;;;;;5091961;28;20393;-68
2023/02/07 06:44:40;;;;;;;7.77;7.07;;;-0.30;88.20;;;;;;5091521;28;20744;-69
2023/02/07 06:47:05;;;;;;;8.47;7.40;;;-0.20;87.30;;;;;;5091500;28;20912;-69
2023/02/07 06:49:32;;;;;;;9.23;8.33;;;-0.10;91.60;;;;;;5091601;28;20377;-69
2023/02/07 06:51:57;;;;;;;11.93;8.70;;;-0.20;86.40;;;;;;5091581;28;20468;-69
2023/02/07 06:54:23;;;;;;;9.70;8.00;;;-0.20;89.70;;;;;;5091828;28;20415;-69
2023/02/07 06:56:48;;;;;;;8.73;7.90;;;-0.20;88.60;;;;;;5091132;28;20420;-69
2023/02/07 06:59:14;;;;;;;10.75;8.73;;;-0.10;91.30;;;;;;5090902;28;20401;-69
2023/02/07 07:01:40;;;;;;;8.05;6.97;;;-0.30;90.00;;;;;;5091411;28;20408;-69
2023/02/07 07:04:07;;;;;;;10.65;8.60;;;-0.30;90.80;;;;;;5091452;28;20875;-69
2023/02/07 07:06:33;;;;;;;11.27;8.40;;;-0.30;92.00;;;;;;5091159;28;20397;-69
2023/02/07 07:08:58;;;;;;;11.52;8.50;;;-0.20;90.20;;;;;;5091305;28;20385;-69
2023/02/07 07:11:24;;;;;;;9.60;8.00;;;-0.30;91.20;;;;;;5091108;28;20390;-69
2023/02/07 07:13:49;;;;;;;11.13;8.65;;;-0.20;92.70;;;;;;5091401;28;20743;-69
2023/02/07 07:16:15;;;;;;;9.60;8.60;;;-0.20;89.50;;;;;;5090903;28;20395;-69
2023/02/07 07:18:40;;;;;;;14.67;8.83;;;-0.20;91.30;;;;;;5091379;28;20470;-69
2023/02/07 07:21:06;;;;;;;13.17;8.87;;;-0.20;91.30;;;;;;5090928;28;20480;-69
2023/02/07 07:23:32;;;;;;;10.57;9.10;;;-0.20;90.20;;;;;;5091372;28;20378;-69
2023/02/07 07:25:58;;;;;;;11.20;9.00;;;-0.10;88.90;;;;;;5090666;28;20405;-69
2023/02/07 07:28:23;;;;;;;10.35;8.60;;;0.00;90.20;;;;;;5091112;28;20506;-69
2023/02/07 07:30:49;;;;;;;11.55;8.98;;;0.00;85.20;;;;;;5090997;28;20401;-69
2023/02/07 07:33:14;;;;;;;10.15;9.15;;;0.00;88.20;;;;;;5090771;28;20460;-69
2023/02/07 07:35:40;;;;;;;12.20;8.50;;;0.00;90.50;;;;;;5090719;28;20426;-69
2023/02/07 07:38:05;;;;;;;9.63;8.60;;;0.10;91.20;;;;;;5091064;28;20776;-69
2023/02/07 07:40:31;;;;;;;11.00;8.43;;;0.00;86.20;;;;;;5091083;28;20377;-69
2023/02/07 07:42:56;;;;;;;9.50;8.50;;;0.40;87.40;;;;;;5091026;28;20378;-69
2023/02/07 07:45:22;;;;;;;10.00;8.73;;;0.20;87.50;;;;;;5090875;28;20804;-69
2023/02/07 07:47:47;;;;;;;10.63;8.93;;;0.10;84.40;;;;;;5090593;28;20782;-69
2023/02/07 07:50:13;;;;;;;10.57;8.20;;;0.20;84.00;;;;;;5090544;28;20451;-69
2023/02/07 07:52:39;;;;;;;8.97;7.80;;;0.00;91.00;;;;;;5090740;28;20393;-69
2023/02/07 07:55:05;;;;;;;10.50;8.23;;;0.30;80.00;;;;;;5090790;28;20378;-68
2023/02/07 07:57:30;;;;;;;8.82;7.93;;;0.40;82.00;;;;;;5090220;28;20397;-68
2023/02/07 07:59:56;;;;;;;9.95;8.30;;;0.40;82.90;;;;;;5090366;28;20394;-68
2023/02/07 08:02:23;;;;;;;11.10;7.93;;;0.50;82.10;;;;;;5089466;28;20409;-68
2023/02/07 08:04:49;;;;;;;9.45;7.70;;;0.60;75.10;;;;;;5090736;28;20374;-68
2023/02/07 08:07:14;;;;;;;8.73;7.82;;;0.60;75.70;;;;;;5090110;28;20481;-69
2023/02/07 08:09:40;;;;;;;9.07;7.72;;;0.60;75.20;;;;;;5090406;28;20524;-68
2023/02/07 08:12:06;;;;;;;9.18;7.60;;;0.20;76.50;;;;;;5090582;28;20461;-69
2023/02/07 08:14:31;;;;;;;11.27;7.63;;;0.50;81.40;;;;;;5090117;28;20583;-69
2023/02/07 08:16:57;;;;;;;8.43;7.63;;;0.60;82.50;;;;;;5089844;28;20393;-68
2023/02/07 08:19:23;;;;;;;9.37;8.30;;;0.90;83.30;;;;;;5090530;28;20393;-69
2023/02/07 08:21:49;;;;;;;9.38;7.60;;;0.40;79.20;;;;;;5090376;28;20752;-68
2023/02/07 08:24:15;;;;;;;8.83;7.70;;;0.80;80.30;;;;;;5090533;28;20389;-68
2023/02/07 08:26:40;;;;;;;8.77;7.60;;;0.80;70.50;;;;;;5090406;28;20382;-69
2023/02/07 08:29:06;;;;;;;9.05;7.60;;;0.60;82.30;;;;;;5090740;28;20785;-68
2023/02/07 08:31:32;;;;;;;9.45;8.00;;;0.40;86.00;;;;;;5090012;28;20473;-69
2023/02/07 08:33:58;;;;;;;9.73;7.80;;;0.40;92.80;;;;;;5090311;28;20450;-68
2023/02/07 08:36:23;;;;;;;10.30;7.43;;;0.30;88.90;;;;;;5089843;28;20448;-68
2023/02/07 08:38:50;;;;;;;8.88;7.55;;;0.20;93.40;;;;;;5090485;28;20388;-68
2023/02/07 08:41:16;;;;;;;8.63;7.20;;;0.40;91.70;;;;;;5090165;28;20401;-69
2023/02/07 08:43:41;;;;;;;9.15;7.88;;;0.60;88.30;;;;;;5089945;28;20393;-68
2023/02/07 08:46:07;;;;;;;10.32;7.50;;;0.60;85.50;;;;;;5089868;28;20384;-68
2023/02/07 08:48:33;;;;;;;9.02;6.78;;;0.50;83.40;;;;;;5090281;28;20386;-69
2023/02/07 08:51:04;;;;;;;9.20;7.20;;;0.60;82.70;;;;;;5090050;28;20386;-69
2023/02/07 08:53:30;;;;;;;10.73;7.80;;;0.60;88.50;;;;;;5090148;28;20389;-70
2023/02/07 08:55:55;;;;;;;10.13;7.70;;;0.70;84.20;;;;;;5089728;28;20401;-69
2023/02/07 08:58:21;;;;;;;8.60;7.70;;;0.70;86.30;;;;;;5089583;28;20394;-69
2023/02/07 09:00:46;;;;;;;10.17;8.00;;;0.70;89.20;;;;;;5089949;28;20406;-69
2023/02/07 09:03:12;;;;;;;10.40;9.03;;;0.70;90.60;;;;;;5089795;28;20400;-69
2023/02/07 09:05:38;;;;;;;10.40;8.50;;;0.50;94.60;;;;;;5086552;28;20441;-69
2023/02/07 09:08:03;;;;;;;9.23;8.20;;;0.40;98.60;;;;;;5069790;28;20384;-69
2023/02/07 09:10:29;;;;;;;12.00;9.15;;;0.40;96.80;;;;;;5039931;22;1745800;-72
2023/02/07 09:12:55;;;;;;;11.55;8.40;;;0.60;95.60;;;;;;5090875;28;20447;-74
2023/02/07 09:15:20;;;;;;;10.33;8.70;;;0.70;92.40;;;;;;5093887;28;20386;-72
2023/02/07 09:17:46;;;;;;;10.73;8.37;;;0.80;91.80;;;;;;5093255;28;20883;-72
2023/02/07 09:20:11;;;;;;;11.63;8.83;;;0.90;87.40;;;;;;5084691;28;20745;-73
2023/02/07 09:23:16;;;;;;;10.87;8.70;;;0.90;85.30;;;;;;5073345;28;20403;-73
2023/02/07 09:25:23;;;;;;;10.43;8.82;;;0.80;90.70;;;;;;5072985;28;20395;-74
2023/02/07 09:27:49;;;;;;;11.17;7.93;;;1.10;83.70;;;;;;5073496;28;20908;-74
2023/02/07 09:30:15;;;;;;;9.27;8.07;;;1.00;82.80;;;;;;5073563;28;20375;-73
2023/02/07 09:32:40;;;;;;;9.30;8.07;;;0.90;88.30;;;;;;5073405;28;20394;-73
2023/02/07 09:35:07;;;;;;;10.65;8.05;;;1.10;82.10;;;;;;5073224;28;20765;-73
2023/02/07 09:37:33;;;;;;;9.93;7.80;;;1.10;77.10;;;;;;5052781;28;20762;-73
2023/02/07 09:39:59;;;;;;;9.53;8.30;;;1.10;80.40;;;;;;5059089;28;20867;-72
2023/02/07 09:42:44;;;;;;;11.52;8.25;;;1.30;78.40;;;;;;5072851;28;20404;-73
2023/02/07 09:45:15;;;;;;;10.57;7.50;;;1.20;81.60;;;;;;5072977;28;20384;-72
2023/02/07 09:47:44;;;;;;;10.30;8.13;;;1.20;77.00;;;;;;5072737;28;20395;-73
2023/02/07 09:50:28;;;;;;;11.32;8.73;;;1.30;79.40;;;;;;5072847;28;20857;-73
2023/02/07 09:53:03;;;;;;;11.60;8.00;;;1.10;78.00;;;;;;5072836;28;20384;-74
2023/02/07 09:55:49;;;;;;;9.20;7.82;;;1.30;72.20;;;;;;5071913;28;20989;-72
2023/02/07 09:58:40;;;;;;;9.13;7.70;;;1.40;75.40;;;;;;5072523;28;20416;-73
2023/02/07 10:01:12;;;;;;;10.52;8.50;;;1.40;72.10;;;;;;5072662;28;20448;-73
2023/02/07 10:03:49;;;;;;;10.80;8.48;;;1.60;73.80;;;;;;5072733;28;20397;-74
2023/02/07 10:06:20;;;;;;;9.60;8.20;;;1.50;75.20;;;;;;5072234;28;20384;-74
2023/02/07 10:08:50;;;;;;;10.02;7.72;;;1.60;75.90;;;;;;5072351;28;20403;-74
2023/02/07 10:11:44;;;;;;;9.02;7.78;;;1.70;70.30;;;;;;5072196;28;20395;-73
2023/02/07 10:14:16;;;;;;;10.48;8.18;;;1.40;64.80;;;;;;5072578;28;20427;-72
2023/02/07 10:17:04;;;;;;;8.00;7.20;;;1.70;65.10;;;;;;5072376;28;20407;-73
2023/02/07 10:19:51;;;;;;;10.07;8.20;;;1.60;62.70;;;;;;5072431;28;20395;-72
2023/02/07 10:22:34;;;;;;;7.13;6.40;;;1.70;64.00;;;;;;5071871;28;20423;-73
2023/02/07 10:25:23;;;;;;;9.07;7.20;;;1.70;57.80;;;;;;5071490;28;20437;-72
2023/02/07 10:28:21;;;;;;;10.50;7.20;;;1.90;58.70;;;;;;5072023;28;20451;-72
2023/02/07 10:30:50;;;;;;;10.20;6.70;;;2.10;59.30;;;;;;5055960;28;20379;-74
2023/02/07 10:33:22;;;;;;;7.20;6.30;;;2.10;55.40;;;;;;5072190;28;20482;-74
2023/02/07 10:35:49;;;;;;;8.80;7.20;;;2.10;56.20;;;;;;5071221;28;20436;-73
2023/02/07 10:38:29;;;;;;;7.10;6.40;;;2.30;52.70;;;;;;5071884;28;20386;-73
2023/02/07 10:41:02;;;;;;;8.63;6.57;;;2.30;56.40;;;;;;5071720;28;20492;-73
2023/02/07 10:43:31;;;;;;;7.22;6.50;;;2.40;51.50;;;;;;5071831;28;20449;-72
2023/02/07 10:46:09;;;;;;;10.40;7.40;;;2.40;50.80;;;;;;5071487;28;20387;-72
2023/02/07 10:48:36;;;;;;;7.28;6.57;;;2.60;50.80;;;;;;5070327;28;20480;-72
2023/02/07 10:51:13;;;;;;;8.00;6.87;;;2.70;51.30;;;;;;5070998;28;20458;-74
2023/02/07 10:53:47;;;;;;;8.00;6.88;;;2.60;50.10;;;;;;5060890;28;20399;-73
2023/02/07 10:56:25;;;;;;;8.52;7.05;;;2.80;51.50;;;;;;5070142;28;20441;-73
2023/02/07 10:58:53;;;;;;;10.30;6.87;;;2.80;48.30;;;;;;5071464;28;20391;-73
2023/02/07 11:01:21;;;;;;;7.70;6.90;;;2.70;47.70;;;;;;5072534;28;20416;-73
2023/02/07 11:03:47;;;;;;;8.05;6.50;;;2.90;48.40;;;;;;5071881;28;20853;-73
2023/02/07 11:06:22;;;;;;;8.70;6.80;;;3.00;48.50;;;;;;5070643;28;20877;-72
2023/02/07 11:08:47;;;;;;;7.47;6.50;;;2.90;50.50;;;;;;5071564;28;20376;-72
2023/02/07 11:11:28;;;;;;;7.90;6.80;;;3.00;47.70;;;;;;5071215;28;20814;-73
2023/02/07 11:13:54;;;;;;;8.27;6.90;;;3.10;48.30;;;;;;5071243;28;20754;-74
2023/02/07 11:16:22;;;;;;;7.40;6.70;;;3.60;47.60;;;;;;5071226;28;20391;-73
2023/02/07 11:19:02;;;;;;;8.63;6.40;;;3.60;46.70;;;;;;5070834;28;20399;-74
2023/02/07 11:21:34;;;;;;;6.80;6.10;;;3.80;45.70;;;;;;5070774;28;20451;-74
2023/02/07 11:24:04;;;;;;;10.00;6.88;;;3.80;47.10;;;;;;5071122;28;20395;-72
2023/02/07 11:26:32;;;;;;;9.93;7.30;;;4.00;46.90;;;;;;5069635;28;20372;-72
2023/02/07 11:29:14;;;;;;;9.63;7.35;;;4.30;42.70;;;;;;5070802;28;20387;-72
2023/02/07 11:31:41;;;;;;;9.48;7.55;;;4.40;40.80;;;;;;5070642;28;20380;-73
2023/02/07 11:34:25;;;;;;;6.80;6.10;;;5.30;41.60;;;;;;5070332;28;20486;-72
2023/02/07 11:36:51;;;;;;;7.95;6.15;;;6.00;37.20;;;;;;5070243;28;20383;-73
2023/02/07 11:39:19;;;;;;;7.97;6.13;;;6.30;36.80;;;;;;5070600;28;20402;-73
2023/02/07 11:42:01;;;;;;;7.85;6.60;;;7.40;31.00;;;;;;5070328;28;20469;-73
2023/02/07 11:44:29;;;;;;;7.50;6.43;;;7.40;26.70;;;;;;5070563;28;20372;-73
2023/02/07 11:46:58;;;;;;;7.95;7.15;;;7.50;26.60;;;;;;5070755;28;20398;-73
2023/02/07 11:49:40;;;;;;;7.50;6.80;;;7.20;27.40;;;;;;5070437;28;20881;-74
2023/02/07 11:52:06;;;;;;;7.63;6.60;;;7.70;29.40;;;;;;5070600;28;20387;-73
2023/02/07 11:54:33;;;;;;;9.57;7.03;;;7.60;27.50;;;;;;5070406;28;20407;-74
2023/02/07 11:57:10;;;;;;;7.80;7.00;;;7.80;25.40;;;;;;5070152;28;20384;-74
2023/02/07 11:59:44;;;;;;;8.00;7.20;;;7.70;25.10;;;;;;5070112;28;20379;-73
2023/02/07 12:02:20;;;;;;;7.68;7.07;;;8.20;23.90;;;;;;5069987;28;20469;-71
2023/02/07 12:04:46;;;;;;;7.80;7.00;;;8.30;24.80;;;;;;5070090;28;20790;-71
2023/02/07 12:07:20;;;;;;;7.90;7.20;;;7.60;23.30;;;;;;5068748;28;20399;-72
2023/02/07 12:09:51;;;;;;;7.50;6.80;;;7.50;24.30;;;;;;5070238;28;20448;-72
2023/02/07 12:12:33;;;;;;;8.13;7.43;;;8.40;23.30;;;;;;5071205;28;20471;-72
2023/02/07 12:15:21;;;;;;;8.65;7.75;;;8.40;24.30;;;;;;5070417;28;20449;-73
2023/02/07 12:17:56;;;;;;;8.13;7.33;;;8.30;23.40;;;;;;5069332;28;20407;-72
2023/02/07 12:20:47;;;;;;;8.18;7.38;;;8.00;23.40;;;;;;5070020;28;20754;-73
2023/02/07 12:23:24;;;;;;;8.20;7.40;;;8.30;23.40;;;;;;5070141;28;20865;-73
2023/02/07 12:25:55;;;;;;;7.63;6.93;;;8.40;22.10;;;;;;5069925;28;20436;-73
2023/02/07 12:29:08;;;;;;;8.57;7.57;;;8.00;24.00;;;;;;5070085;28;20687;-72
2023/02/07 12:31:53;;;;;;;7.95;7.25;;;8.80;22.00;;;;;;5007569;28;20402;-73
2023/02/07 12:34:42;;;;;;;7.22;6.53;;;8.80;22.10;;;;;;5007843;28;20934;-72
2023/02/07 12:37:13;;;;;;;8.02;7.22;;;8.80;18.90;;;;;;5057969;28;20391;-72
2023/02/07 12:39:51;;;;;;;7.93;7.23;;;7.90;21.10;;;;;;5069961;28;20382;-72
2023/02/07 12:42:38;;;;;;;8.55;7.30;;;9.40;19.90;;;;;;5069888;28;20399;-72
2023/02/07 12:45:05;;;;;;;8.13;7.33;;;8.10;20.40;;;;;;5069902;28;20476;-73
2023/02/07 12:47:40;;;;;;;7.80;7.10;;;9.20;20.20;;;;;;5069635;28;20387;-72
2023/02/07 12:50:32;;;;;;;8.63;7.72;;;9.00;19.00;;;;;;5073618;28;20371;-73
2023/02/07 12:53:17;;;;;;;9.00;8.10;;;9.20;20.40;;;;;;5053868;28;20382;-72
2023/02/07 12:55:55;;;;;;;9.55;8.55;;;8.50;20.70;;;;;;5064360;28;20395;-72
2023/02/07 12:58:52;;;;;;;9.25;8.35;;;7.90;22.50;;;;;;5074019;28;20418;-72
2023/02/07 13:01:52;;;;;;;10.05;9.02;;;8.20;22.70;;;;;;5074737;28;20444;-72
2023/02/07 13:04:30;;;;;;;9.80;8.90;;;8.70;22.90;;;;;;5073480;28;20378;-74
2023/02/07 13:07:20;;;;;;;10.00;9.00;;;8.40;24.60;;;;;;5073047;28;20467;-72
2023/02/07 13:10:06;;;;;;;10.85;9.10;;;9.50;23.10;;;;;;5072652;28;20399;-72
2023/02/07 13:12:57;;;;;;;11.10;9.80;;;8.60;23.20;;;;;;5073446;28;20395;-73